createdAt,value
2023-05-11T00:00:34.059Z,37.59
2023-05-11T00:04:01.595Z,37.75
2023-05-11T00:07:28.194Z,37.70
2023-05-11T00:10:55.836Z,37.76
2023-05-11T00:14:23.653Z,37.80
2023-05-11T00:17:52.896Z,37.86
2023-05-11T00:21:20.863Z,37.94
2023-05-11T00:24:47.478Z,38.09
2023-05-11T00:28:15.181Z,38.23
2023-05-11T00:31:42.589Z,38.15
2023-05-11T00:35:11.813Z,38.30
2023-05-11T00:38:41.378Z,38.31
2023-05-11T00:42:08.723Z,38.42
2023-05-11T00:45:37.734Z,38.52
2023-05-11T00:49:05.661Z,38.52
2023-05-11T00:52:33.447Z,38.60
2023-05-11T00:56:00.780Z,38.72
2023-05-11T00:59:28.424Z,38.76
2023-05-11T01:02:56.133Z,38.78
2023-05-11T01:06:33.630Z,38.93
2023-05-11T01:10:05.709Z,39.10
2023-05-11T01:13:36.435Z,39.00
2023-05-11T01:17:09.156Z,39.19
2023-05-11T01:20:37.540Z,39.21
2023-05-11T01:24:31.031Z,39.11
2023-05-11T01:28:18.799Z,39.34
2023-05-11T01:31:49.007Z,39.41
2023-05-11T01:35:23.638Z,39.50
2023-05-11T01:38:56.293Z,39.61
2023-05-11T01:42:28.050Z,39.63
2023-05-11T01:45:57.705Z,39.71
2023-05-11T01:49:25.264Z,39.78
2023-05-11T01:52:53.331Z,39.96
2023-05-11T01:56:23.249Z,39.81
2023-05-11T01:59:52.592Z,40.00
2023-05-11T02:03:21.829Z,40.10
2023-05-11T02:06:50.937Z,40.07
2023-05-11T02:10:20.433Z,40.32
2023-05-11T02:13:51.116Z,40.33
2023-05-11T02:17:22.433Z,40.32
2023-05-11T02:20:52.075Z,40.59
2023-05-11T02:24:20.846Z,40.22
2023-05-11T02:27:49.208Z,40.38
2023-05-11T02:31:21.355Z,40.64
2023-05-11T02:34:56.128Z,40.47
2023-05-11T02:38:27.269Z,40.68
2023-05-11T02:42:00.711Z,40.70
2023-05-11T02:45:28.237Z,40.69
2023-05-11T02:49:01.317Z,40.86
2023-05-11T02:52:31.875Z,41.10
2023-05-11T02:55:59.906Z,41.27
2023-05-11T02:59:27.513Z,41.09
2023-05-11T03:02:54.430Z,41.29
2023-05-11T03:06:22.193Z,41.35
2023-05-11T03:09:49.794Z,41.44
2023-05-11T03:13:17.597Z,41.30
2023-05-11T03:16:45.867Z,41.28
2023-05-11T03:20:15.395Z,41.72
2023-05-11T03:23:44.608Z,41.69
2023-05-11T03:27:13.239Z,41.80
2023-05-11T03:30:42.192Z,42.04
2023-05-11T03:34:11.941Z,41.93
2023-05-11T03:37:41.376Z,42.21
2023-05-11T03:41:13.059Z,41.94
2023-05-11T03:44:41.980Z,42.09
2023-05-11T03:48:10.215Z,42.12
2023-05-11T03:51:38.559Z,42.33
2023-05-11T03:55:05.960Z,42.51
2023-05-11T03:58:33.519Z,42.23
2023-05-11T04:02:01.759Z,42.56
2023-05-11T04:05:29.629Z,42.69
2023-05-11T04:08:56.502Z,42.82
2023-05-11T04:12:23.143Z,42.83
2023-05-11T04:15:51.737Z,42.80
2023-05-11T04:19:21.144Z,42.70
2023-05-11T04:22:48.173Z,43.06
2023-05-11T04:26:15.854Z,43.10
2023-05-11T04:29:43.878Z,43.01
2023-05-11T04:33:17.979Z,43.08
2023-05-11T04:36:48.205Z,43.02
2023-05-11T04:40:16.326Z,43.04
2023-05-11T04:43:44.524Z,43.16
2023-05-11T04:47:11.884Z,43.30
2023-05-11T04:50:39.851Z,43.30
2023-05-11T04:54:10.564Z,43.13
2023-05-11T04:57:40.511Z,43.37
2023-05-11T05:01:10.964Z,43.14
2023-05-11T05:04:38.337Z,43.21
2023-05-11T05:08:07.585Z,43.40
2023-05-11T05:11:34.750Z,43.39
2023-05-11T05:15:01.468Z,43.36
2023-05-11T05:18:28.612Z,43.46
2023-05-11T05:21:55.979Z,43.48
2023-05-11T05:25:23.771Z,43.41
2023-05-11T05:28:50.836Z,43.44
2023-05-11T05:32:20.591Z,43.42
2023-05-11T05:35:48.482Z,43.55
2023-05-11T05:39:17.177Z,43.58
2023-05-11T05:42:43.749Z,43.49
2023-05-11T05:46:15.007Z,43.50
2023-05-11T05:49:43.357Z,43.37
2023-05-11T05:53:10.148Z,43.37
2023-05-11T05:56:37.795Z,43.42
2023-05-11T06:00:09.823Z,43.54
2023-05-11T06:03:40.463Z,43.40
2023-05-11T06:07:07.962Z,43.29
2023-05-11T06:10:35.394Z,43.42
2023-05-11T06:14:02.327Z,43.26
2023-05-11T06:17:31.089Z,43.44
2023-05-11T06:20:58.348Z,43.23
2023-05-11T06:24:32.467Z,43.16
2023-05-11T06:27:59.384Z,43.18
2023-05-11T06:31:27.272Z,43.07
2023-05-11T06:34:54.806Z,43.17
2023-05-11T06:38:23.188Z,43.29
2023-05-11T06:41:53.909Z,43.07
2023-05-11T06:45:22.970Z,43.15
2023-05-11T06:48:50.622Z,42.92
2023-05-11T06:52:18.798Z,42.82
2023-05-11T06:55:47.596Z,42.90
2023-05-11T06:59:15.495Z,42.74
2023-05-11T07:02:43.249Z,42.83
2023-05-11T07:06:11.773Z,42.56
2023-05-11T07:09:40.036Z,42.47
2023-05-11T07:13:10.234Z,42.53
2023-05-11T07:16:39.534Z,42.37
2023-05-11T07:20:06.988Z,42.29
2023-05-11T07:23:34.738Z,42.32
2023-05-11T07:27:02.275Z,42.17
2023-05-11T07:30:29.763Z,41.95
2023-05-11T07:33:57.486Z,41.97
2023-05-11T07:37:24.767Z,41.83
2023-05-11T07:40:52.103Z,41.68
2023-05-11T07:44:19.726Z,41.74
2023-05-11T07:47:46.516Z,41.46
2023-05-11T07:51:13.722Z,41.52
2023-05-11T07:54:41.357Z,41.47
2023-05-11T07:58:08.560Z,41.19
2023-05-11T08:01:35.772Z,41.21
2023-05-11T08:05:02.575Z,41.07
2023-05-11T08:08:32.543Z,40.76
2023-05-11T08:12:01.851Z,40.59
2023-05-11T08:15:28.998Z,40.19
2023-05-11T08:18:55.580Z,40.17
2023-05-11T08:22:22.552Z,39.96
2023-05-11T08:25:57.723Z,39.62
2023-05-11T08:29:27.640Z,39.43
2023-05-11T08:32:59.036Z,39.22
2023-05-11T08:36:27.211Z,39.06
2023-05-11T08:39:54.531Z,38.79
2023-05-11T08:43:24.113Z,38.65
2023-05-11T08:47:08.554Z,38.40
2023-05-11T08:50:41.813Z,38.10
2023-05-11T08:54:09.001Z,38.05
2023-05-11T08:57:38.082Z,37.81
2023-05-11T09:01:06.061Z,37.32
2023-05-11T09:04:34.028Z,37.10
2023-05-11T09:08:05.525Z,37.12
2023-05-11T09:11:32.169Z,37.07
2023-05-11T09:15:02.518Z,36.85
2023-05-11T09:18:30.098Z,36.79
2023-05-11T09:21:57.358Z,36.41
2023-05-11T09:25:25.793Z,36.09
2023-05-11T09:29:02.935Z,36.14
2023-05-11T09:32:47.770Z,35.76
2023-05-11T09:36:26.355Z,35.55
2023-05-11T09:43:26.117Z,35.23
2023-05-11T09:46:53.020Z,35.26
2023-05-11T09:50:26.334Z,35.02
2023-05-11T09:53:54.555Z,34.86
2023-05-11T09:57:30.000Z,34.73
2023-05-11T10:00:58.668Z,34.52
2023-05-11T10:04:32.715Z,34.36
2023-05-11T10:08:09.125Z,34.18
2023-05-11T10:11:36.520Z,34.13
2023-05-11T10:15:06.019Z,34.05
2023-05-11T10:18:33.360Z,33.79
2023-05-11T10:22:00.980Z,33.80
2023-05-11T10:25:29.413Z,33.50
2023-05-11T10:28:57.223Z,33.22
2023-05-11T10:32:24.141Z,33.15
2023-05-11T10:35:54.065Z,32.94
2023-05-11T10:39:23.044Z,32.77
2023-05-11T10:43:17.788Z,32.67
2023-05-11T10:47:02.425Z,32.62
2023-05-11T10:50:49.284Z,32.35
2023-05-11T10:54:40.940Z,32.19
2023-05-11T10:58:12.170Z,32.12
2023-05-11T11:01:42.149Z,32.10
2023-05-11T11:05:17.796Z,31.97
2023-05-11T11:09:03.170Z,31.81
2023-05-11T11:12:31.346Z,31.68
2023-05-11T11:16:16.719Z,31.40
2023-05-11T11:19:45.101Z,31.32
2023-05-11T11:23:46.040Z,31.21
2023-05-11T11:27:14.971Z,31.31
2023-05-11T11:30:45.351Z,31.36
2023-05-11T11:34:39.956Z,31.38
2023-05-11T11:38:07.931Z,31.00
2023-05-11T11:41:35.793Z,30.93
2023-05-11T11:45:45.519Z,30.77
2023-05-11T11:49:14.689Z,30.43
2023-05-11T11:52:46.941Z,30.27
2023-05-11T11:56:41.128Z,30.19
2023-05-11T12:00:13.269Z,30.07
2023-05-11T12:03:48.304Z,30.09
2023-05-11T12:07:17.315Z,29.90
2023-05-11T12:10:46.745Z,29.72
2023-05-11T12:14:17.421Z,29.74
2023-05-11T12:17:45.423Z,29.63
2023-05-11T12:21:23.022Z,29.57
2023-05-11T12:24:50.266Z,29.47
2023-05-11T12:28:23.381Z,29.04
2023-05-11T12:31:50.467Z,28.98
2023-05-11T12:35:23.674Z,28.87
2023-05-11T12:38:53.670Z,28.66
2023-05-11T12:42:23.573Z,28.54
2023-05-11T12:45:52.008Z,28.40
2023-05-11T12:49:26.664Z,28.24
2023-05-11T12:52:55.557Z,27.98
2023-05-11T12:56:22.961Z,27.86
2023-05-11T12:59:50.213Z,27.61
2023-05-11T13:03:22.506Z,27.45
2023-05-11T13:06:49.515Z,27.33
2023-05-11T13:10:16.869Z,27.34
2023-05-11T13:13:44.108Z,26.99
2023-05-11T13:17:11.390Z,26.92
2023-05-11T13:20:39.161Z,26.55
2023-05-11T13:24:09.270Z,26.56
2023-05-11T13:27:37.154Z,26.44
2023-05-11T13:31:05.087Z,26.25
2023-05-11T13:34:32.649Z,26.20
2023-05-11T13:37:59.449Z,26.15
2023-05-11T13:41:29.097Z,25.97
2023-05-11T13:44:59.039Z,25.87
2023-05-11T13:48:27.931Z,25.89
2023-05-11T13:51:55.979Z,25.80
2023-05-11T13:55:24.635Z,25.57
2023-05-11T13:58:52.063Z,25.28
2023-05-11T14:02:19.123Z,25.13
2023-05-11T14:05:46.310Z,24.90
2023-05-11T14:09:16.121Z,25.01
2023-05-11T14:12:44.456Z,24.69
2023-05-11T14:16:14.028Z,24.52
2023-05-11T14:19:41.457Z,24.24
2023-05-11T14:23:08.750Z,24.21
2023-05-11T14:26:43.186Z,24.15
2023-05-11T14:30:20.136Z,24.19
2023-05-11T14:33:49.554Z,23.96
2023-05-11T14:37:16.440Z,24.02
2023-05-11T14:40:44.747Z,23.95
2023-05-11T14:44:13.965Z,23.86
2023-05-11T14:47:42.650Z,23.64
2023-05-11T14:51:10.378Z,23.48
2023-05-11T14:54:39.802Z,23.16
2023-05-11T14:58:09.609Z,23.46
2023-05-11T15:01:39.560Z,23.34
2023-05-11T15:05:13.718Z,23.24
2023-05-11T15:08:43.518Z,23.06
2023-05-11T15:12:15.162Z,23.03
2023-05-11T15:15:47.672Z,23.22
2023-05-11T15:19:15.617Z,23.04
2023-05-11T15:22:51.118Z,23.12
2023-05-11T15:26:19.507Z,22.68
2023-05-11T15:29:47.076Z,22.78
2023-05-11T15:33:16.402Z,22.67
2023-05-11T15:36:46.244Z,22.45
2023-05-11T15:40:18.468Z,22.48
2023-05-11T15:43:45.591Z,22.44
2023-05-11T15:47:12.712Z,22.59
2023-05-11T15:50:42.077Z,22.49
2023-05-11T15:54:11.398Z,22.44
2023-05-11T15:57:40.026Z,22.34
2023-05-11T16:01:06.773Z,22.37
2023-05-11T16:04:35.805Z,22.52
2023-05-11T16:08:02.515Z,22.39
2023-05-11T16:11:31.733Z,22.52
2023-05-11T16:14:58.801Z,22.66
2023-05-11T16:18:26.777Z,22.62
2023-05-11T16:21:53.983Z,22.61
2023-05-11T16:25:21.706Z,22.93
2023-05-11T16:28:49.367Z,23.02
2023-05-11T16:32:17.830Z,23.00
2023-05-11T16:35:45.014Z,23.30
2023-05-11T16:39:12.282Z,23.19
2023-05-11T16:42:41.316Z,23.23
2023-05-11T16:46:08.151Z,23.25
2023-05-11T16:49:35.125Z,23.26
2023-05-11T16:53:03.767Z,23.44
2023-05-11T16:56:31.815Z,23.36
2023-05-11T16:59:59.381Z,23.63
2023-05-11T17:03:27.245Z,23.81
2023-05-11T17:06:58.017Z,23.89
2023-05-11T17:10:25.034Z,23.99
2023-05-11T17:13:54.798Z,24.10
2023-05-11T17:17:22.375Z,24.15
2023-05-11T17:20:56.320Z,24.30
2023-05-11T17:24:23.495Z,24.29
2023-05-11T17:27:50.241Z,24.38
2023-05-11T17:31:18.262Z,24.50
2023-05-11T17:34:46.917Z,24.56
2023-05-11T17:38:17.375Z,24.69
2023-05-11T17:41:45.406Z,24.74
2023-05-11T17:45:14.650Z,24.85
2023-05-11T17:48:41.590Z,24.94
2023-05-11T17:52:11.617Z,25.14
2023-05-11T17:55:41.845Z,25.31
2023-05-11T17:59:09.855Z,25.43
2023-05-11T18:02:37.596Z,25.54
2023-05-11T18:06:08.492Z,25.71
2023-05-11T18:09:41.519Z,25.83
2023-05-11T18:13:09.617Z,25.78
2023-05-11T18:16:38.133Z,25.98
2023-05-11T18:20:08.367Z,26.11
2023-05-11T18:23:36.279Z,26.27
2023-05-11T18:27:08.761Z,26.28
2023-05-11T18:30:37.229Z,26.45
2023-05-11T18:34:06.797Z,26.40
2023-05-11T18:37:40.636Z,26.76
2023-05-11T18:41:09.686Z,26.78
2023-05-11T18:44:37.309Z,27.00
2023-05-11T18:48:05.173Z,27.13
2023-05-11T18:51:35.180Z,27.24
2023-05-11T18:55:02.769Z,27.36
2023-05-11T18:58:29.776Z,27.56
2023-05-11T19:01:56.963Z,27.68
2023-05-11T19:05:26.485Z,27.84
2023-05-11T19:08:55.829Z,27.91
2023-05-11T19:12:23.735Z,28.03
2023-05-11T19:15:51.198Z,28.21
2023-05-11T19:19:19.544Z,28.33
2023-05-11T19:22:47.265Z,28.47
2023-05-11T19:26:19.779Z,28.59
2023-05-11T19:29:50.957Z,28.75
2023-05-11T19:33:20.351Z,28.80
2023-05-11T19:36:51.770Z,28.94
2023-05-11T19:43:52.776Z,29.28
2023-05-11T19:47:23.082Z,29.39
2023-05-11T19:50:50.142Z,29.51
2023-05-11T19:54:19.671Z,29.64
2023-05-11T19:57:47.126Z,29.78
2023-05-11T20:01:21.276Z,29.83
2023-05-11T20:04:48.519Z,30.04
2023-05-11T20:08:20.050Z,30.18
2023-05-11T20:11:54.637Z,30.34
2023-05-11T20:15:22.645Z,30.47
2023-05-11T20:18:50.552Z,30.56
2023-05-11T20:22:18.147Z,30.70
2023-05-11T20:25:48.539Z,30.68
2023-05-11T20:29:17.167Z,30.98
2023-05-11T20:36:16.194Z,31.38
2023-05-11T20:39:43.248Z,31.43
2023-05-11T20:43:14.752Z,31.71
2023-05-11T20:46:43.535Z,31.85
2023-05-11T20:50:12.416Z,32.06
2023-05-11T20:53:40.281Z,32.29
2023-05-11T20:57:08.527Z,32.38
2023-05-11T21:00:35.526Z,32.51
2023-05-11T21:04:03.750Z,32.60
2023-05-11T21:07:31.408Z,32.97
2023-05-11T21:10:59.543Z,32.81
2023-05-11T21:14:26.606Z,33.19
2023-05-11T21:17:53.700Z,33.38
2023-05-11T21:21:21.860Z,33.32
2023-05-11T21:24:51.003Z,33.38
2023-05-11T21:28:22.962Z,33.47
2023-05-11T21:31:49.904Z,33.54
2023-05-11T21:35:17.073Z,33.78
2023-05-11T21:38:44.271Z,33.95
2023-05-11T21:42:13.411Z,34.00
2023-05-11T21:45:45.484Z,33.95
2023-05-11T21:49:18.225Z,34.18
2023-05-11T21:52:46.994Z,34.11
2023-05-11T21:56:15.187Z,34.29
2023-05-11T21:59:42.449Z,34.54
2023-05-11T22:03:11.272Z,34.48
2023-05-11T22:06:41.384Z,34.37
2023-05-11T22:10:11.540Z,34.44
2023-05-11T22:13:40.206Z,34.64
2023-05-11T22:17:11.123Z,34.84
2023-05-11T22:20:39.288Z,34.88
2023-05-11T22:24:11.232Z,34.73
2023-05-11T22:27:40.756Z,34.91
2023-05-11T22:31:11.106Z,35.06
2023-05-11T22:34:40.390Z,35.04
2023-05-11T22:38:07.722Z,35.17
2023-05-11T22:41:36.177Z,35.13
2023-05-11T22:45:03.486Z,35.27
2023-05-11T22:48:30.909Z,35.35
2023-05-11T22:52:01.938Z,35.39
2023-05-11T22:55:42.989Z,35.35
2023-05-11T22:59:10.173Z,35.54
2023-05-11T23:02:39.653Z,35.52
2023-05-11T23:06:08.406Z,35.72
2023-05-11T23:09:37.188Z,35.66
2023-05-11T23:13:05.337Z,35.74
2023-05-11T23:16:35.575Z,35.92
2023-05-11T23:20:05.407Z,36.06
2023-05-11T23:23:35.843Z,35.92
2023-05-11T23:27:06.573Z,35.93
2023-05-11T23:30:37.379Z,36.16
2023-05-11T23:34:04.151Z,36.28
2023-05-11T23:37:30.883Z,36.18
2023-05-11T23:40:58.453Z,36.42
2023-05-11T23:44:26.233Z,36.33
2023-05-11T23:47:53.936Z,36.46
2023-05-11T23:51:22.850Z,36.51
2023-05-11T23:54:53.045Z,36.56
2023-05-11T23:58:21.105Z,36.64
